Kotel'Nikovo, Russia
Current Conditions -  °F | °C
As of 11:30 AM on Sunday 26 Oct 2014 (Local Time) from URWW Reporting Station
Few Clouds Few Clouds  
Wind Chill: 20°   Ceiling: Unl
Heat Index: 28°   Visibility: 6mi
Dew Point: 10°   Wind: 9mph
Humidity: 47%   Direction: 10°N
Pressure: 30.65"   Gusts: NA
Location:  47.63°N, 43.15°E
Report Text: URWW 260830Z 01004MPS 9999 FEW033 M02/M12 Q1038 NOSIG RMKSC070
Loading
Personal Weather Stations






























Interactive Weather Map
Tropical Storm Tracking
New forecast layout! Learn more

10-Day Weather Forecast

Advertisements
Track Severe Weather on mobile